Flugmeteorologie

METAR


Letzte Änderung: 25 Feb 2020 06:50:00
701
SAHU41 HASM 250700
METAR LHSM 250645Z AUTO VRB02KT 9000 NCD 03/M02 Q1010

TAF


Letzte Änderung: 25 Feb 2020 06:15:00
699
FCHU99 LHSM 250500 AAA
TAF AMD LHSM 250600Z 2506/2515 VRB03KT CAVOK
BECMG 2508/2511 22014G24KT
TEMPO 2512/2515 SCT040